Time;durP1;ratioP1;P1;durP2;ratioP2;P2;SDS_P1;SDS_P2;PMS_P1;PMS_P2;Temp;Humidity;BMP_temperature;BMP_pressure;BME280_temperature;BME280_humidity;BME280_pressure;Samples;Min_cycle;Max_cycle;Signal;HPM_P1;HPM_P2
2023/09/03 00:00:40;;;;;;;0.10;0.10;;;;;;;15.63;100.00;97352.78;4839067;29;20053;-79
2023/09/03 00:03:26;;;;;;;0.00;0.00;;;;;;;15.56;100.00;97351.13;4839458;29;20078;-79
2023/09/03 00:06:12;;;;;;;0.10;0.10;;;;;;;15.50;100.00;97354.03;4838395;29;20105;-78
2023/09/03 00:08:57;;;;;;;0.00;0.00;;;;;;;15.53;100.00;97365.09;4842136;29;20133;-79
2023/09/03 00:11:43;;;;;;;0.10;0.10;;;;;;;15.49;100.00;97347.81;4840317;29;20045;-78
2023/09/03 00:14:29;;;;;;;0.10;0.10;;;;;;;15.16;100.00;97342.69;4842038;29;20146;-78
2023/09/03 00:17:17;;;;;;;0.10;0.10;;;;;;;15.01;100.00;97341.47;4840205;29;20499;-78
2023/09/03 00:20:04;;;;;;;0.10;0.10;;;;;;;15.11;100.00;97340.75;4824015;29;20041;-78
2023/09/03 00:22:50;;;;;;;0.08;0.08;;;;;;;14.86;100.00;97338.63;4838981;29;20072;-78
2023/09/03 00:25:36;;;;;;;0.10;0.10;;;;;;;14.95;100.00;97339.00;4838734;29;20063;-78
2023/09/03 00:28:23;;;;;;;0.10;0.10;;;;;;;14.99;100.00;97327.44;4838834;29;20986;-77
2023/09/03 00:31:09;;;;;;;0.10;0.10;;;;;;;15.11;100.00;97329.16;4839708;29;20045;-78
2023/09/03 00:33:55;;;;;;;0.10;0.10;;;;;;;15.17;100.00;97328.13;4840780;29;20057;-78
2023/09/03 00:36:41;;;;;;;0.10;0.10;;;;;;;15.07;100.00;97333.44;4825952;29;20105;-79
2023/09/03 00:39:26;;;;;;;0.00;0.00;;;;;;;15.10;100.00;97341.84;4838589;29;20529;-79
2023/09/03 00:42:12;;;;;;;0.08;0.08;;;;;;;14.98;100.00;97338.47;4839284;29;20144;-78
2023/09/03 00:44:58;;;;;;;0.10;0.10;;;;;;;15.02;100.00;97323.44;4826394;29;20061;-78
2023/09/03 00:47:44;;;;;;;0.10;0.10;;;;;;;14.91;100.00;97335.16;4836758;29;21000;-78
2023/09/03 00:50:31;;;;;;;0.10;0.10;;;;;;;14.91;100.00;97330.59;4839212;29;20041;-79
2023/09/03 00:53:18;;;;;;;0.00;0.00;;;;;;;14.93;100.00;97333.03;4826686;29;20117;-78
2023/09/03 00:56:06;;;;;;;0.03;0.03;;;;;;;14.83;100.00;97333.75;4838754;29;20868;-79
2023/09/03 00:58:53;;;;;;;0.10;0.10;;;;;;;14.71;100.00;97341.19;4838652;29;20412;-78
2023/09/03 01:01:39;;;;;;;0.10;0.10;;;;;;;14.69;100.00;97343.28;4825119;29;20130;-78
2023/09/03 01:04:24;;;;;;;0.10;0.10;;;;;;;14.58;100.00;97352.34;4836388;29;20128;-78
2023/09/03 01:07:12;;;;;;;0.10;0.10;;;;;;;14.63;100.00;97353.22;4836838;29;20451;-78
2023/09/03 01:09:58;;;;;;;0.10;0.10;;;;;;;14.60;100.00;97353.69;4837729;29;20049;-78
2023/09/03 01:12:59;;;;;;;0.10;0.10;;;;;;;14.51;100.00;97346.34;4839711;29;20041;-78
2023/09/03 01:15:49;;;;;;;0.10;0.10;;;;;;;14.48;100.00;97348.47;4839827;29;20140;-77
2023/09/03 01:18:39;;;;;;;0.10;0.10;;;;;;;14.55;100.00;97342.88;4838360;29;20571;-78
2023/09/03 01:21:43;;;;;;;0.10;0.10;;;;;;;14.45;100.00;97348.09;4826688;29;20052;-78
2023/09/03 01:24:59;;;;;;;0.00;0.00;;;;;;;14.38;100.00;97352.88;4839861;29;20644;-78
2023/09/03 01:28:04;;;;;;;0.00;0.00;;;;;;;14.51;100.00;97367.88;4839122;29;20181;-78
2023/09/03 01:30:53;;;;;;;0.10;0.10;;;;;;;14.47;100.00;97375.63;4826281;29;20137;-78
2023/09/03 01:33:41;;;;;;;0.10;0.10;;;;;;;14.22;100.00;97378.78;4839133;29;20140;-78
2023/09/03 01:36:31;;;;;;;0.00;0.00;;;;;;;14.15;100.00;97376.28;4839343;29;20045;-79
2023/09/03 01:39:19;;;;;;;0.10;0.10;;;;;;;14.17;100.00;97390.31;4838111;29;20163;-77
2023/09/03 01:42:05;;;;;;;0.10;0.10;;;;;;;14.12;100.00;97387.53;4839627;29;20105;-77
2023/09/03 01:44:52;;;;;;;0.10;0.10;;;;;;;14.03;100.00;97391.72;4841028;29;20951;-77
2023/09/03 01:48:02;;;;;;;0.10;0.10;;;;;;;14.14;100.00;97387.28;4825643;29;20073;-76
2023/09/03 01:51:22;;;;;;;0.08;0.08;;;;;;;14.23;100.00;97389.28;4823386;29;20045;-77
2023/09/03 01:54:12;;;;;;;0.10;0.10;;;;;;;14.06;100.00;97391.22;4838041;29;20037;-77
2023/09/03 01:57:02;;;;;;;0.10;0.10;;;;;;;13.98;100.00;97397.03;4838070;29;20046;-76
2023/09/03 01:59:56;;;;;;;0.10;0.10;;;;;;;13.88;100.00;97395.00;4840892;29;20065;-77
2023/09/03 02:02:45;;;;;;;0.05;0.05;;;;;;;13.96;100.00;97388.41;4828227;29;20046;-78
2023/09/03 02:05:32;;;;;;;0.10;0.10;;;;;;;13.99;100.00;97390.56;4842917;29;20053;-77
2023/09/03 02:08:18;;;;;;;0.10;0.10;;;;;;;13.96;100.00;97395.66;4842881;29;20041;-78
2023/09/03 02:11:03;;;;;;;0.10;0.10;;;;;;;14.10;100.00;97391.56;4841010;29;20273;-77
2023/09/03 02:13:49;;;;;;;0.10;0.10;;;;;;;14.28;100.00;97395.81;4840677;29;20053;-78
2023/09/03 02:16:35;;;;;;;0.10;0.10;;;;;;;14.40;100.00;97380.38;4843039;29;20055;-78
2023/09/03 02:19:22;;;;;;;0.10;0.10;;;;;;;14.51;100.00;97374.06;4840598;29;20717;-78
2023/09/03 02:22:08;;;;;;;0.10;0.10;;;;;;;14.41;100.00;97382.00;4840537;29;20041;-78
2023/09/03 02:24:53;;;;;;;0.47;0.30;;;;;;;14.27;100.00;97386.94;4841282;29;20153;-78
2023/09/03 02:27:39;;;;;;;0.32;0.30;;;;;;;14.43;100.00;97387.94;4841476;29;20081;-78
2023/09/03 02:30:25;;;;;;;0.73;0.40;;;;;;;14.35;100.00;97393.75;4842777;29;20102;-78
2023/09/03 02:33:11;;;;;;;0.60;0.38;;;;;;;14.16;100.00;97401.31;4842684;29;20440;-78
2023/09/03 02:35:57;;;;;;;0.82;0.45;;;;;;;14.14;100.00;97398.88;4840820;29;20095;-78
2023/09/03 02:38:43;;;;;;;1.38;0.73;;;;;;;13.96;100.00;97414.50;4842414;29;20038;-78
2023/09/03 02:41:29;;;;;;;0.55;0.30;;;;;;;13.98;100.00;97418.56;4840622;29;20948;-78
2023/09/03 02:44:15;;;;;;;0.82;0.50;;;;;;;13.90;100.00;97414.41;4842072;29;20474;-78
2023/09/03 02:47:01;;;;;;;0.17;0.15;;;;;;;14.05;100.00;97404.94;4842772;29;20587;-77
2023/09/03 02:49:47;;;;;;;0.10;0.10;;;;;;;14.09;100.00;97417.66;4841195;29;20752;-78
2023/09/03 02:52:33;;;;;;;0.10;0.10;;;;;;;14.01;100.00;97410.00;4842184;29;20100;-78
2023/09/03 02:55:18;;;;;;;0.10;0.10;;;;;;;14.04;100.00;97400.63;4840766;29;20048;-78
2023/09/03 02:58:04;;;;;;;0.10;0.10;;;;;;;14.14;100.00;97398.88;4839992;29;20109;-78
2023/09/03 03:00:50;;;;;;;0.10;0.10;;;;;;;14.14;100.00;97401.56;4841429;29;20041;-77
2023/09/03 03:03:36;;;;;;;0.00;0.00;;;;;;;14.13;100.00;97410.69;4839828;29;20069;-78
2023/09/03 03:06:22;;;;;;;0.10;0.10;;;;;;;14.19;100.00;97409.72;4840918;29;20055;-78
2023/09/03 03:09:10;;;;;;;0.10;0.10;;;;;;;14.07;100.00;97411.69;4839123;29;20050;-78
2023/09/03 03:11:55;;;;;;;0.10;0.10;;;;;;;14.06;100.00;97415.44;4839609;29;20057;-78
2023/09/03 03:14:42;;;;;;;0.10;0.10;;;;;;;14.05;100.00;97421.06;4841330;29;20130;-78
2023/09/03 03:17:28;;;;;;;0.10;0.10;;;;;;;14.00;100.00;97421.81;4840200;29;20654;-77
2023/09/03 03:20:14;;;;;;;0.10;0.10;;;;;;;14.12;100.00;97419.84;4841667;29;20049;-77
2023/09/03 03:23:00;;;;;;;0.00;0.00;;;;;;;14.07;100.00;97425.13;4840174;29;20953;-77
2023/09/03 03:25:52;;;;;;;0.10;0.10;;;;;;;14.23;100.00;97426.97;4843239;29;20467;-78
2023/09/03 03:28:38;;;;;;;0.10;0.10;;;;;;;14.34;100.00;97419.06;4839921;29;20160;-78
2023/09/03 03:31:24;;;;;;;0.10;0.10;;;;;;;14.40;100.00;97424.28;4839071;29;20053;-78
2023/09/03 03:34:12;;;;;;;0.00;0.00;;;;;;;14.35;100.00;97429.59;4839200;29;20494;-78
2023/09/03 03:36:59;;;;;;;0.10;0.10;;;;;;;14.31;100.00;97433.00;4826876;29;20082;-77
2023/09/03 03:39:49;;;;;;;0.10;0.10;;;;;;;14.35;100.00;97426.06;4838290;29;20411;-77
2023/09/03 03:42:34;;;;;;;0.10;0.10;;;;;;;14.42;100.00;97434.78;4840449;29;20113;-77
2023/09/03 03:45:21;;;;;;;0.10;0.10;;;;;;;14.39;100.00;97425.31;4840043;29;20097;-77
2023/09/03 03:48:07;;;;;;;0.22;0.20;;;;;;;14.49;100.00;97432.75;4838421;29;20690;-78
2023/09/03 03:50:56;;;;;;;0.10;0.10;;;;;;;14.49;100.00;97424.69;4839507;29;20053;-78
2023/09/03 03:53:43;;;;;;;0.60;0.38;;;;;;;14.36;100.00;97425.00;4840456;29;20049;-78
2023/09/03 03:56:29;;;;;;;0.52;0.30;;;;;;;14.07;100.00;97410.88;4840851;29;20042;-78
2023/09/03 03:59:16;;;;;;;0.57;0.40;;;;;;;13.86;100.00;97402.53;4838568;29;20046;-78
2023/09/03 04:02:02;;;;;;;0.47;0.25;;;;;;;13.94;100.00;97409.34;4825807;29;20789;-78
2023/09/03 04:04:52;;;;;;;0.15;0.13;;;;;;;14.11;100.00;97418.22;4841704;29;20100;-78
2023/09/03 04:07:38;;;;;;;0.20;0.20;;;;;;;14.14;100.00;97417.72;4839681;29;20048;-78
2023/09/03 04:10:24;;;;;;;0.10;0.10;;;;;;;14.08;100.00;97418.69;4843104;29;20148;-78
2023/09/03 04:13:09;;;;;;;0.10;0.10;;;;;;;14.16;100.00;97420.16;4841932;29;20495;-78
2023/09/03 04:15:56;;;;;;;0.10;0.10;;;;;;;14.19;100.00;97425.06;4840109;29;20057;-78
2023/09/03 04:18:44;;;;;;;0.10;0.10;;;;;;;14.26;100.00;97414.09;4837695;29;20721;-77
2023/09/03 04:21:30;;;;;;;0.10;0.10;;;;;;;14.29;100.00;97418.97;4841065;29;20060;-77
2023/09/03 04:24:16;;;;;;;0.10;0.10;;;;;;;14.15;100.00;97413.94;4839133;29;20491;-77
2023/09/03 04:27:02;;;;;;;0.10;0.10;;;;;;;14.14;100.00;97412.31;4838693;29;20049;-77
2023/09/03 04:29:48;;;;;;;0.10;0.10;;;;;;;13.96;100.00;97404.53;4842426;29;20579;-77
2023/09/03 04:32:34;;;;;;;0.00;0.00;;;;;;;13.97;100.00;97411.53;4839254;29;20073;-77
2023/09/03 04:35:20;;;;;;;0.10;0.10;;;;;;;13.98;100.00;97415.84;4841704;29;20049;-77
2023/09/03 04:38:06;;;;;;;0.32;0.20;;;;;;;13.84;100.00;97423.44;4838843;29;20602;-78
2023/09/03 04:40:54;;;;;;;1.58;0.82;;;;;;;13.81;100.00;97425.84;4839103;29;20443;-78
2023/09/03 04:43:46;;;;;;;0.73;0.38;;;;;;;13.75;100.00;97435.69;4840043;29;20084;-78
2023/09/03 04:46:35;;;;;;;0.93;0.50;;;;;;;13.81;100.00;97436.59;4841115;29;20049;-78
2023/09/03 04:49:23;;;;;;;1.30;0.70;;;;;;;13.71;100.00;97442.63;4839552;29;20118;-78
2023/09/03 04:52:09;;;;;;;0.60;0.38;;;;;;;13.51;100.00;97445.78;4824975;29;20865;-78
2023/09/03 04:54:55;;;;;;;0.47;0.30;;;;;;;13.51;100.00;97453.03;4841594;29;20057;-78
2023/09/03 04:57:41;;;;;;;0.73;0.38;;;;;;;13.50;100.00;97460.28;4841775;29;20052;-78
2023/09/03 05:00:30;;;;;;;0.30;0.22;;;;;;;13.57;100.00;97460.94;4839718;29;20419;-78
2023/09/03 05:03:17;;;;;;;0.40;0.32;;;;;;;13.55;100.00;97460.38;4840728;29;20177;-78
2023/09/03 05:06:03;;;;;;;0.85;0.40;;;;;;;13.49;100.00;97464.03;4841635;29;20037;-78
2023/09/03 05:08:49;;;;;;;0.98;0.57;;;;;;;13.48;100.00;97475.03;4837989;29;20121;-78
2023/09/03 05:11:36;;;;;;;0.85;0.40;;;;;;;13.58;100.00;97480.59;4841423;29;20195;-77
2023/09/03 05:14:22;;;;;;;0.88;0.50;;;;;;;13.60;100.00;97487.34;4840264;29;20081;-79
2023/09/03 05:17:08;;;;;;;0.30;0.20;;;;;;;13.81;100.00;97490.38;4837338;29;20045;-77
2023/09/03 05:19:54;;;;;;;0.20;0.20;;;;;;;13.74;100.00;97492.41;4840331;29;20913;-77
2023/09/03 05:22:40;;;;;;;1.27;0.70;;;;;;;13.86;100.00;97495.88;4826925;29;20053;-77
2023/09/03 05:25:26;;;;;;;0.93;0.45;;;;;;;13.92;100.00;97492.19;4840183;29;20515;-77
2023/09/03 05:28:12;;;;;;;0.45;0.30;;;;;;;13.88;100.00;97489.16;4841747;29;20061;-77
2023/09/03 05:30:59;;;;;;;0.40;0.30;;;;;;;14.07;100.00;97495.09;4838182;29;20045;-78
2023/09/03 05:33:48;;;;;;;0.43;0.30;;;;;;;14.13;100.00;97496.00;4842364;29;20045;-79
2023/09/03 05:36:33;;;;;;;0.20;0.20;;;;;;;14.11;100.00;97498.97;4853349;29;20037;-79
2023/09/03 05:39:19;;;;;;;0.10;0.10;;;;;;;14.11;100.00;97506.22;4856720;29;20040;-79
2023/09/03 05:42:14;;;;;;;0.10;0.10;;;;;;;14.18;100.00;97507.69;4839057;29;20430;-79
2023/09/03 05:45:00;;;;;;;0.28;0.20;;;;;;;14.33;100.00;97511.66;4852378;29;20152;-79
2023/09/03 05:51:05;;;;;;;0.20;0.20;;;;;;;14.72;100.00;97510.63;5016728;23;20065;-78
2023/09/03 05:53:54;;;;;;;0.10;0.10;;;;;;;14.81;100.00;97510.22;4873593;29;20782;-78
2023/09/03 05:56:41;;;;;;;0.40;0.30;;;;;;;14.90;100.00;97514.09;5347020;23;20088;-79
2023/09/03 05:59:27;;;;;;;0.85;0.40;;;;;;;14.99;100.00;97520.66;4893596;29;20513;-79
2023/09/03 06:02:13;;;;;;;0.45;0.30;;;;;;;15.10;100.00;97519.75;4891735;29;20052;-78
2023/09/03 06:05:02;;;;;;;0.20;0.20;;;;;;;15.18;100.00;97524.69;4881885;29;20044;-78
2023/09/03 06:07:47;;;;;;;0.20;0.20;;;;;;;15.25;100.00;97529.88;4882140;29;20052;-78
2023/09/03 06:10:33;;;;;;;0.20;0.20;;;;;;;15.35;100.00;97539.97;4892829;29;20744;-78
2023/09/03 06:13:19;;;;;;;0.10;0.10;;;;;;;15.48;100.00;97536.88;4890156;29;20135;-78
2023/09/03 06:16:05;;;;;;;0.20;0.20;;;;;;;15.62;100.00;97543.53;4890213;29;20170;-79
2023/09/03 06:18:51;;;;;;;0.10;0.10;;;;;;;15.82;100.00;97543.72;4893285;29;20044;-78
2023/09/03 06:21:37;;;;;;;0.10;0.10;;;;;;;15.97;100.00;97547.66;4890512;29;20048;-78
2023/09/03 06:24:23;;;;;;;0.20;0.20;;;;;;;16.03;100.00;97531.25;4892208;29;20048;-79
2023/09/03 06:27:09;;;;;;;0.40;0.28;;;;;;;16.20;100.00;97533.00;4889862;29;20075;-79
2023/09/03 06:29:55;;;;;;;0.60;0.40;;;;;;;16.28;100.00;97541.44;4889174;29;20044;-79
2023/09/03 06:32:41;;;;;;;0.17;0.17;;;;;;;16.39;100.00;97550.41;4892002;29;20139;-79
2023/09/03 06:35:27;;;;;;;0.22;0.22;;;;;;;16.43;100.00;97546.94;4892013;29;20040;-80
2023/09/03 06:38:12;;;;;;;0.10;0.10;;;;;;;16.52;100.00;97559.97;4883812;29;20055;-80
2023/09/03 06:40:58;;;;;;;0.20;0.20;;;;;;;16.10;100.00;97561.50;4892908;29;20533;-79
2023/09/03 06:43:44;;;;;;;0.10;0.10;;;;;;;16.30;100.00;97558.19;4891296;29;20044;-79
2023/09/03 06:46:30;;;;;;;0.20;0.20;;;;;;;16.44;100.00;97562.06;4892041;29;20207;-79
2023/09/03 06:49:16;;;;;;;0.10;0.10;;;;;;;16.56;100.00;97569.97;4889753;29;20043;-80
2023/09/03 06:52:02;;;;;;;0.40;0.35;;;;;;;16.59;100.00;97572.19;4891441;29;20043;-79
2023/09/03 06:54:48;;;;;;;0.13;0.13;;;;;;;16.64;100.00;97580.28;4886349;29;20521;-79
2023/09/03 06:57:34;;;;;;;0.52;0.35;;;;;;;16.45;100.00;97581.78;4889179;29;20168;-79
2023/09/03 07:00:20;;;;;;;0.82;0.43;;;;;;;16.32;100.00;97593.84;4888127;29;20064;-79
2023/09/03 07:03:08;;;;;;;0.32;0.22;;;;;;;16.45;100.00;97587.19;4890049;29;20384;-80
2023/09/03 07:05:54;;;;;;;1.35;0.70;;;;;;;16.53;100.00;97604.81;4886203;29;20044;-80
2023/09/03 07:08:40;;;;;;;0.50;0.40;;;;;;;16.59;100.00;97612.69;4891204;29;20482;-79
2023/09/03 07:11:25;;;;;;;0.77;0.40;;;;;;;16.69;100.00;97612.81;4892354;29;20040;-80
2023/09/03 07:14:11;;;;;;;0.50;0.30;;;;;;;16.78;100.00;97623.94;4889543;29;20104;-80
2023/09/03 07:16:57;;;;;;;0.30;0.30;;;;;;;16.93;100.00;97621.34;4881949;29;20099;-79
2023/09/03 07:19:43;;;;;;;0.45;0.38;;;;;;;17.01;100.00;97621.94;4890076;29;20082;-80
2023/09/03 07:22:29;;;;;;;0.20;0.20;;;;;;;17.03;100.00;97620.56;4890264;29;20083;-80
2023/09/03 07:25:15;;;;;;;0.20;0.20;;;;;;;16.95;100.00;97619.19;4890044;29;20048;-80
2023/09/03 07:28:02;;;;;;;0.28;0.28;;;;;;;16.85;100.00;97618.31;4892876;29;20560;-79
2023/09/03 07:30:48;;;;;;;0.38;0.30;;;;;;;16.99;100.00;97619.50;4890877;29;20055;-80
2023/09/03 07:33:34;;;;;;;0.25;0.25;;;;;;;17.25;100.00;97639.38;4890144;29;20047;-80
2023/09/03 07:36:20;;;;;;;0.30;0.20;;;;;;;17.42;100.00;97642.69;4888876;29;20044;-79
2023/09/03 07:39:08;;;;;;;0.20;0.20;;;;;;;17.74;100.00;97650.72;4889861;29;20066;-80
2023/09/03 07:41:56;;;;;;;0.35;0.20;;;;;;;17.36;100.00;97657.28;4891598;29;20052;-79
2023/09/03 07:44:42;;;;;;;0.15;0.15;;;;;;;17.41;100.00;97651.06;4876964;29;20428;-79
2023/09/03 07:47:28;;;;;;;0.20;0.20;;;;;;;17.51;100.00;97657.38;4889540;29;20044;-80
2023/09/03 07:50:13;;;;;;;0.10;0.10;;;;;;;17.69;100.00;97656.09;4889382;29;20044;-80
2023/09/03 07:53:00;;;;;;;0.65;0.45;;;;;;;17.91;100.00;97647.81;4890019;29;20048;-79
2023/09/03 07:55:46;;;;;;;0.52;0.30;;;;;;;18.16;100.00;97657.06;4888886;29;20552;-80
2023/09/03 07:58:32;;;;;;;0.43;0.30;;;;;;;18.32;100.00;97650.59;4889840;29;20729;-80
2023/09/03 08:01:19;;;;;;;0.10;0.10;;;;;;;18.32;100.00;97645.16;4888727;29;20421;-80
2023/09/03 08:04:05;;;;;;;0.20;0.20;;;;;;;18.37;100.00;97645.19;4891391;29;20067;-79
2023/09/03 08:06:53;;;;;;;0.20;0.20;;;;;;;18.54;100.00;97653.84;4891868;29;20075;-80
2023/09/03 08:09:39;;;;;;;0.20;0.20;;;;;;;18.63;100.00;97654.94;4887808;29;20044;-80
2023/09/03 08:12:25;;;;;;;0.22;0.20;;;;;;;18.78;100.00;97651.44;4887942;29;20039;-80
2023/09/03 08:15:11;;;;;;;0.10;0.10;;;;;;;18.79;100.00;97652.25;4890415;29;20483;-80
2023/09/03 08:17:57;;;;;;;0.20;0.20;;;;;;;18.80;100.00;97654.69;4888835;29;20502;-80
2023/09/03 08:20:43;;;;;;;0.20;0.20;;;;;;;19.15;100.00;97658.47;4879999;29;20044;-80
2023/09/03 08:23:28;;;;;;;0.20;0.20;;;;;;;19.13;100.00;97660.59;4888424;29;20536;-80
2023/09/03 08:26:14;;;;;;;0.10;0.10;;;;;;;19.37;100.00;97658.91;4893175;29;20040;-81
2023/09/03 08:29:00;;;;;;;0.20;0.20;;;;;;;19.35;100.00;97655.69;4890368;29;20578;-80
2023/09/03 08:31:46;;;;;;;0.10;0.10;;;;;;;19.42;100.00;97656.19;4885853;29;20208;-80
2023/09/03 08:34:32;;;;;;;0.10;0.10;;;;;;;19.32;100.00;97652.72;4879265;29;20498;-80
2023/09/03 08:37:17;;;;;;;0.10;0.10;;;;;;;19.49;100.00;97645.88;4890363;29;20044;-80
2023/09/03 08:40:05;;;;;;;0.10;0.10;;;;;;;19.34;100.00;97653.25;4889400;29;20059;-80
2023/09/03 08:42:53;;;;;;;0.10;0.10;;;;;;;19.73;100.00;97658.84;4892880;29;20041;-80
2023/09/03 09:11:40;;;;;;;0.10;0.10;;;;;;;20.01;100.00;97660.06;5517164;23;20061;-79
2023/09/03 09:14:35;;;;;;;0.20;0.20;;;;;;;20.19;100.00;97664.84;4878102;29;20140;-79
2023/09/03 09:17:21;;;;;;;0.10;0.10;;;;;;;20.36;100.00;97661.75;4876085;29;20537;-80
2023/09/03 09:20:12;;;;;;;0.10;0.10;;;;;;;20.56;100.00;97655.38;4877552;29;20060;-80
2023/09/03 09:22:58;;;;;;;0.10;0.10;;;;;;;20.66;100.00;97654.50;4879934;29;20806;-80
2023/09/03 09:25:44;;;;;;;0.10;0.10;;;;;;;20.81;100.00;97647.03;4881130;29;20071;-80
2023/09/03 09:28:32;;;;;;;0.10;0.10;;;;;;;21.07;100.00;97646.78;4867989;29;20164;-79
2023/09/03 09:31:18;;;;;;;0.10;0.10;;;;;;;21.35;100.00;97645.16;4875788;29;20045;-80
2023/09/03 09:34:12;;;;;;;0.10;0.10;;;;;;;21.44;100.00;97637.97;4876999;29;20040;-80
2023/09/03 09:37:00;;;;;;;0.10;0.10;;;;;;;21.44;100.00;97645.34;4877376;29;20561;-80
2023/09/03 09:39:48;;;;;;;0.10;0.10;;;;;;;21.46;100.00;97651.28;4878252;29;20104;-80
2023/09/03 09:42:53;;;;;;;0.10;0.10;;;;;;;21.58;100.00;97649.78;4876229;29;20606;-80
2023/09/03 09:45:47;;;;;;;0.15;0.15;;;;;;;21.59;100.00;97647.88;4877772;29;20052;-80
2023/09/03 09:48:53;;;;;;;0.15;0.15;;;;;;;21.68;100.00;97652.38;4852695;29;20634;-81
2023/09/03 09:51:39;;;;;;;0.10;0.10;;;;;;;21.92;100.00;97652.34;4868817;29;20159;-80
2023/09/03 09:54:25;;;;;;;0.10;0.10;;;;;;;22.07;100.00;97650.53;4875652;29;20137;-80
2023/09/03 09:57:16;;;;;;;0.10;0.10;;;;;;;22.39;100.00;97658.81;4877148;29;20040;-81
2023/09/03 10:00:04;;;;;;;0.10;0.10;;;;;;;22.35;100.00;97665.16;4876254;29;20132;-81
2023/09/03 10:02:56;;;;;;;0.00;0.00;;;;;;;22.68;100.00;97657.84;4863590;29;20056;-81
2023/09/03 10:05:49;;;;;;;0.13;0.13;;;;;;;22.90;100.00;97668.16;4877490;29;20414;-80
2023/09/03 10:08:37;;;;;;;0.10;0.10;;;;;;;23.05;100.00;97665.16;4875225;29;20128;-81
2023/09/03 10:11:23;;;;;;;0.20;0.20;;;;;;;22.78;100.00;97663.91;4874707;29;20490;-81
2023/09/03 10:14:09;;;;;;;0.10;0.10;;;;;;;22.16;100.00;97665.16;4866153;29;20108;-80
2023/09/03 10:16:57;;;;;;;0.10;0.10;;;;;;;22.91;100.00;97670.56;4872307;29;20048;-81
2023/09/03 10:19:51;;;;;;;0.10;0.10;;;;;;;22.75;100.00;97663.72;4877514;29;20605;-81
2023/09/03 10:22:40;;;;;;;0.10;0.10;;;;;;;23.68;100.00;97663.72;4877467;29;20068;-80
2023/09/03 10:25:29;;;;;;;0.10;0.10;;;;;;;23.90;100.00;97666.56;4872541;29;20095;-80
2023/09/03 10:28:20;;;;;;;0.20;0.20;;;;;;;24.07;100.00;97650.31;4874495;29;20052;-80
2023/09/03 10:31:09;;;;;;;0.10;0.10;;;;;;;24.69;100.00;97647.00;4873699;29;20610;-80
2023/09/03 10:33:55;;;;;;;0.10;0.10;;;;;;;25.27;100.00;97646.91;4872648;29;20053;-80
2023/09/03 10:37:03;;;;;;;0.10;0.10;;;;;;;25.42;94.36;97655.81;4873137;29;20493;-80
2023/09/03 10:39:49;;;;;;;0.10;0.10;;;;;;;25.45;94.64;97656.03;4873530;29;20492;-80
2023/09/03 10:42:37;;;;;;;0.10;0.10;;;;;;;26.05;95.11;97651.84;4872165;29;20041;-80
2023/09/03 10:45:25;;;;;;;0.20;0.20;;;;;;;26.84;93.04;97664.50;4859411;29;20053;-80
2023/09/03 10:48:16;;;;;;;0.20;0.20;;;;;;;28.45;81.76;97653.50;4873070;29;20085;-79
2023/09/03 10:51:03;;;;;;;0.10;0.10;;;;;;;30.13;69.83;97654.63;4875250;29;20044;-80
2023/09/03 10:53:50;;;;;;;0.10;0.10;;;;;;;31.04;51.37;97656.84;4864247;29;20624;-81
2023/09/03 10:57:05;;;;;;;0.10;0.10;;;;;;;31.08;54.06;97660.53;4871694;29;20044;-80
2023/09/03 11:00:05;;;;;;;0.10;0.10;;;;;;;31.75;53.07;97660.69;4874551;29;20197;-80
2023/09/03 11:03:18;;;;;;;0.10;0.10;;;;;;;32.06;42.90;97657.09;4872900;29;20067;-80
2023/09/03 11:06:26;;;;;;;0.20;0.20;;;;;;;32.94;40.36;97649.16;4871656;29;20100;-81
2023/09/03 11:09:14;;;;;;;0.20;0.20;;;;;;;34.28;41.19;97651.84;4871557;29;21066;-80
2023/09/03 11:12:01;;;;;;;0.10;0.10;;;;;;;34.74;37.39;97648.91;4873670;29;20529;-80
2023/09/03 11:14:50;;;;;;;0.10;0.10;;;;;;;35.16;35.74;97643.03;4871638;29;20438;-80
2023/09/03 11:17:36;;;;;;;0.10;0.10;;;;;;;35.12;34.82;97645.78;4872789;29;20049;-80
2023/09/03 11:20:32;;;;;;;0.20;0.20;;;;;;;36.30;30.49;97637.63;4873757;29;20052;-80
2023/09/03 11:23:18;;;;;;;0.10;0.10;;;;;;;38.16;29.94;97643.25;4860183;29;20052;-81
2023/09/03 11:26:12;;;;;;;0.10;0.10;;;;;;;38.08;27.31;97649.28;4869724;29;20045;-80
2023/09/03 11:28:59;;;;;;;0.20;0.20;;;;;;;37.63;26.40;97646.06;4872131;29;20509;-80
2023/09/03 11:31:48;;;;;;;0.20;0.20;;;;;;;38.49;27.76;97646.78;4873395;29;20044;-81
2023/09/03 11:34:34;;;;;;;0.10;0.10;;;;;;;38.34;26.07;97645.25;4872445;29;20136;-80
2023/09/03 11:37:20;;;;;;;0.10;0.10;;;;;;;38.88;25.45;97649.47;4872059;29;20040;-81
2023/09/03 11:40:07;;;;;;;0.10;0.10;;;;;;;38.47;24.93;97636.03;4872665;29;20312;-80
2023/09/03 11:42:52;;;;;;;0.10;0.10;;;;;;;37.25;28.04;97642.81;4872658;29;20052;-80
2023/09/03 11:45:41;;;;;;;0.10;0.10;;;;;;;38.16;27.77;97640.47;4872267;29;20056;-81
2023/09/03 11:48:29;;;;;;;0.10;0.10;;;;;;;37.97;28.52;97637.28;4871604;29;20064;-80
2023/09/03 11:51:26;;;;;;;0.10;0.10;;;;;;;37.98;26.53;97634.13;4874644;29;20115;-80
2023/09/03 11:54:22;;;;;;;0.10;0.10;;;;;;;36.68;27.25;97628.69;4870530;29;20076;-80
2023/09/03 11:57:18;;;;;;;0.10;0.10;;;;;;;38.29;26.25;97626.91;4870463;29;20037;-80
2023/09/03 12:00:06;;;;;;;0.10;0.10;;;;;;;39.31;26.18;97624.06;4872561;29;20056;-80
2023/09/03 12:02:53;;;;;;;0.10;0.10;;;;;;;38.37;23.98;97622.88;4872403;29;20057;-80
2023/09/03 12:05:42;;;;;;;0.10;0.10;;;;;;;40.74;24.05;97617.09;4870322;29;20049;-80
2023/09/03 12:08:32;;;;;;;0.10;0.10;;;;;;;41.86;21.92;97617.88;4870648;29;20729;-81
2023/09/03 12:11:18;;;;;;;0.10;0.10;;;;;;;41.78;22.83;97620.00;4869226;29;20068;-81
2023/09/03 12:14:07;;;;;;;0.13;0.13;;;;;;;42.24;22.76;97621.22;4872313;29;20080;-81
2023/09/03 12:16:53;;;;;;;;;;;;;;;42.01;20.65;97631.22;4870167;29;20403;-81
2023/09/03 12:19:40;;;;;;;0.10;0.10;;;;;;;40.86;21.58;97620.16;4870106;29;19930;-81
2023/09/03 12:22:27;;;;;;;0.10;0.10;;;;;;;37.61;26.88;97626.13;4872335;29;20506;-81
2023/09/03 12:25:13;;;;;;;0.00;0.00;;;;;;;37.47;26.96;97621.34;4871438;29;20063;-81
2023/09/03 12:27:58;;;;;;;0.10;0.10;;;;;;;37.92;24.99;97619.75;4871390;29;20051;-81
2023/09/03 12:30:57;;;;;;;0.00;0.00;;;;;;;36.45;25.19;97617.84;4872858;29;20063;-81
2023/09/03 12:33:50;;;;;;;0.00;0.00;;;;;;;36.60;26.78;97617.91;4863437;29;20502;-81
2023/09/03 12:36:56;;;;;;;0.10;0.10;;;;;;;36.83;26.45;97630.34;4872043;29;20052;-81
2023/09/03 12:39:42;;;;;;;0.10;0.10;;;;;;;36.78;27.79;97624.34;4861962;29;20049;-81
2023/09/03 12:42:28;;;;;;;0.00;0.00;;;;;;;36.55;27.54;97616.28;4886978;29;20071;-81
2023/09/03 12:45:14;;;;;;;0.00;0.00;;;;;;;36.35;27.82;97634.50;4883298;29;20056;-81
2023/09/03 12:48:00;;;;;;;0.10;0.10;;;;;;;36.80;28.14;97628.31;4872276;29;20044;-81
2023/09/03 12:50:46;;;;;;;0.10;0.10;;;;;;;36.91;28.45;97631.19;4869167;29;20668;-81
2023/09/03 12:53:31;;;;;;;0.10;0.10;;;;;;;37.82;27.22;97628.97;4872833;29;20056;-81
2023/09/03 12:56:17;;;;;;;0.10;0.10;;;;;;;37.30;24.53;97636.06;4869921;29;20095;-81
2023/09/03 12:59:06;;;;;;;0.00;0.00;;;;;;;35.81;27.58;97648.03;4870994;29;20085;-81
2023/09/03 13:01:52;;;;;;;0.10;0.10;;;;;;;35.18;29.56;97644.28;4870720;29;20499;-81
2023/09/03 13:04:38;;;;;;;0.10;0.10;;;;;;;36.35;28.04;97642.84;4868693;29;20208;-81
2023/09/03 13:07:24;;;;;;;0.05;0.05;;;;;;;35.03;29.64;97636.97;4872256;29;20142;-81
2023/09/03 13:10:09;;;;;;;0.08;0.08;;;;;;;35.99;27.14;97628.69;4868514;29;20096;-81
2023/09/03 13:12:55;;;;;;;0.10;0.10;;;;;;;36.09;27.44;97633.53;4860578;29;20053;-81
2023/09/03 13:15:41;;;;;;;0.00;0.00;;;;;;;35.08;28.91;97635.78;4872690;29;20045;-81
2023/09/03 13:18:27;;;;;;;0.00;0.00;;;;;;;34.98;30.16;97625.38;4870900;29;20083;-81
2023/09/03 13:21:13;;;;;;;0.00;0.00;;;;;;;34.51;30.73;97624.78;4869414;29;20271;-81
2023/09/03 13:23:59;;;;;;;0.03;0.03;;;;;;;33.87;31.12;97625.81;4869672;29;20121;-81
2023/09/03 13:26:45;;;;;;;0.00;0.00;;;;;;;33.44;31.01;97628.69;4871051;29;20060;-81
2023/09/03 13:29:31;;;;;;;0.00;0.00;;;;;;;33.57;31.59;97631.28;4870093;29;20406;-81
2023/09/03 13:32:16;;;;;;;0.00;0.00;;;;;;;33.43;31.74;97624.31;4868491;29;20053;-80